createdAt,value
2023-05-11T00:00:02.071Z,36.54
2023-05-11T00:01:02.105Z,36.54
2023-05-11T00:02:02.228Z,36.52
2023-05-11T00:03:02.382Z,36.54
2023-05-11T00:04:02.406Z,36.51
2023-05-11T00:05:02.364Z,36.57
2023-05-11T00:06:02.341Z,36.48
2023-05-11T00:07:02.436Z,36.51
2023-05-11T00:08:02.474Z,36.51
2023-05-11T00:09:02.508Z,36.51
2023-05-11T00:10:02.578Z,36.50
2023-05-11T00:11:02.613Z,36.51
2023-05-11T00:12:02.670Z,36.52
2023-05-11T00:13:02.735Z,36.52
2023-05-11T00:14:02.787Z,36.52
2023-05-11T00:15:02.831Z,36.54
2023-05-11T00:16:02.896Z,36.52
2023-05-11T00:17:02.890Z,36.52
2023-05-11T00:18:03.028Z,36.49
2023-05-11T00:19:03.176Z,36.50
2023-05-11T00:20:03.043Z,36.52
2023-05-11T00:21:03.095Z,36.55
2023-05-11T00:22:03.153Z,36.44
2023-05-11T00:23:03.355Z,36.52
2023-05-11T00:24:03.273Z,36.50
2023-05-11T00:25:03.296Z,36.45
2023-05-11T00:26:03.376Z,36.50
2023-05-11T00:27:03.420Z,36.49
2023-05-11T00:28:03.451Z,36.47
2023-05-11T00:29:03.479Z,36.50
2023-05-11T00:30:03.572Z,36.50
2023-05-11T00:31:03.650Z,36.49
2023-05-11T00:32:03.652Z,36.48
2023-05-11T00:33:03.739Z,36.48
2023-05-11T00:34:03.824Z,36.48
2023-05-11T00:35:03.821Z,36.42
2023-05-11T00:36:03.846Z,36.45
2023-05-11T00:37:03.879Z,36.44
2023-05-11T00:38:03.965Z,36.45
2023-05-11T00:39:04.002Z,36.47
2023-05-11T00:40:04.076Z,36.48
2023-05-11T00:41:04.107Z,36.44
2023-05-11T00:42:04.124Z,36.45
2023-05-11T00:43:04.213Z,36.45
2023-05-11T00:44:04.307Z,36.47
2023-05-11T00:45:04.291Z,36.43
2023-05-11T00:46:04.383Z,36.47
2023-05-11T00:47:04.534Z,36.39
2023-05-11T00:48:04.541Z,36.43
2023-05-11T00:49:04.484Z,36.42
2023-05-11T00:50:04.566Z,36.40
2023-05-11T00:51:04.589Z,36.43
2023-05-11T00:52:04.640Z,36.42
2023-05-11T00:53:04.694Z,36.40
2023-05-11T00:54:04.771Z,36.44
2023-05-11T00:55:04.827Z,36.42
2023-05-11T00:56:04.868Z,36.48
2023-05-11T00:57:04.919Z,36.42
2023-05-11T00:58:04.960Z,36.38
2023-05-11T00:59:05.024Z,36.42
2023-05-11T01:00:05.043Z,36.36
2023-05-11T01:01:05.141Z,36.40
2023-05-11T01:02:05.239Z,36.44
2023-05-11T01:03:05.284Z,36.47
2023-05-11T01:04:05.307Z,36.40
2023-05-11T01:05:05.310Z,36.40
2023-05-11T01:06:05.458Z,36.36
2023-05-11T01:07:05.437Z,36.37
2023-05-11T01:08:05.533Z,36.36
2023-05-11T01:09:05.876Z,36.40
2023-05-11T01:10:05.585Z,36.39
2023-05-11T01:11:05.675Z,36.40
2023-05-11T01:12:05.712Z,36.38
2023-05-11T01:13:05.762Z,36.38
2023-05-11T01:14:05.822Z,36.35
2023-05-11T01:15:05.862Z,36.37
2023-05-11T01:16:06.006Z,36.37
2023-05-11T01:17:05.966Z,36.35
2023-05-11T01:18:06.118Z,36.39
2023-05-11T01:19:06.143Z,36.34
2023-05-11T01:20:06.120Z,36.34
2023-05-11T01:21:06.223Z,36.32
2023-05-11T01:22:06.266Z,36.29
2023-05-11T01:23:06.300Z,36.27
2023-05-11T01:24:06.366Z,36.32
2023-05-11T01:25:06.444Z,36.35
2023-05-11T01:26:06.461Z,36.34
2023-05-11T01:27:06.550Z,36.29
2023-05-11T01:28:06.699Z,36.33
2023-05-11T01:29:06.653Z,36.30
2023-05-11T01:30:06.730Z,36.28
2023-05-11T01:31:06.751Z,36.31
2023-05-11T01:32:06.957Z,36.29
2023-05-11T01:33:06.927Z,36.28
2023-05-11T01:34:06.958Z,36.31
2023-05-11T01:35:06.985Z,36.29
2023-05-11T01:36:07.033Z,36.31
2023-05-11T01:37:07.101Z,36.32
2023-05-11T01:38:07.165Z,36.25
2023-05-11T01:39:07.281Z,36.27
2023-05-11T01:40:07.304Z,36.25
2023-05-11T01:41:07.333Z,36.31
2023-05-11T01:42:07.377Z,36.29
2023-05-11T01:43:07.509Z,36.29
2023-05-11T01:44:07.481Z,36.30
2023-05-11T01:45:07.904Z,36.26
2023-05-11T01:46:07.701Z,36.23
2023-05-11T01:47:07.685Z,36.25
2023-05-11T01:48:07.827Z,36.29
2023-05-11T01:49:07.830Z,36.25
2023-05-11T01:50:08.397Z,36.24
2023-05-11T01:51:07.938Z,36.25
2023-05-11T01:52:07.986Z,36.27
2023-05-11T01:53:08.048Z,36.26
2023-05-11T01:54:08.095Z,36.20
2023-05-11T01:55:08.400Z,36.27
2023-05-11T01:56:08.258Z,36.29
2023-05-11T01:57:08.316Z,36.24
2023-05-11T01:58:08.355Z,36.25
2023-05-11T01:59:08.436Z,36.22
2023-05-11T02:00:08.880Z,36.24
2023-05-11T02:01:08.568Z,36.26
2023-05-11T02:02:08.615Z,36.18
2023-05-11T02:03:08.821Z,36.23
2023-05-11T02:04:08.702Z,36.22
2023-05-11T02:05:08.783Z,36.21
2023-05-11T02:06:08.848Z,36.19
2023-05-11T02:07:08.875Z,36.26
2023-05-11T02:08:08.925Z,36.21
2023-05-11T02:09:09.026Z,36.22
2023-05-11T02:10:09.080Z,36.24
2023-05-11T02:11:09.206Z,36.16
2023-05-11T02:12:09.211Z,36.22
2023-05-11T02:13:09.264Z,36.17
2023-05-11T02:14:09.343Z,36.20
2023-05-11T02:15:09.401Z,36.23
2023-05-11T02:16:09.472Z,36.17
2023-05-11T02:17:09.504Z,36.19
2023-05-11T02:18:09.624Z,36.22
2023-05-11T02:19:09.734Z,36.20
2023-05-11T02:20:09.729Z,36.25
2023-05-11T02:21:09.789Z,36.16
2023-05-11T02:22:09.855Z,36.18
2023-05-11T02:23:09.896Z,36.16
2023-05-11T02:24:09.966Z,36.20
2023-05-11T02:25:10.057Z,36.15
2023-05-11T02:26:10.111Z,36.17
2023-05-11T02:27:10.154Z,36.13
2023-05-11T02:28:10.232Z,36.16
2023-05-11T02:29:10.253Z,36.16
2023-05-11T02:30:10.408Z,36.14
2023-05-11T02:31:10.412Z,36.11
2023-05-11T02:32:10.472Z,36.14
2023-05-11T02:33:10.594Z,36.16
2023-05-11T02:34:10.619Z,36.15
2023-05-11T02:35:10.887Z,36.12
2023-05-11T02:36:10.717Z,36.15
2023-05-11T02:37:10.799Z,36.20
2023-05-11T02:38:10.838Z,36.20
2023-05-11T02:39:10.926Z,36.18
2023-05-11T02:40:10.984Z,36.10
2023-05-11T02:41:11.032Z,36.09
2023-05-11T02:42:11.108Z,36.16
2023-05-11T02:43:11.177Z,36.15
2023-05-11T02:44:11.226Z,36.12
2023-05-11T02:45:11.292Z,36.10
2023-05-11T02:46:11.361Z,36.15
2023-05-11T02:47:11.442Z,36.15
2023-05-11T02:48:11.527Z,36.13
2023-05-11T02:49:11.562Z,36.12
2023-05-11T02:50:11.650Z,36.10
2023-05-11T02:51:11.696Z,36.11
2023-05-11T02:52:11.775Z,36.11
2023-05-11T02:53:11.797Z,36.16
2023-05-11T02:54:11.885Z,36.13
2023-05-11T02:55:12.032Z,36.07
2023-05-11T02:56:12.031Z,36.07
2023-05-11T02:57:12.063Z,36.11
2023-05-11T02:58:12.167Z,36.07
2023-05-11T02:59:12.215Z,36.07
2023-05-11T03:00:12.279Z,36.07
2023-05-11T03:01:12.376Z,36.12
2023-05-11T03:02:12.455Z,36.07
2023-05-11T03:03:12.516Z,36.11
2023-05-11T03:04:12.488Z,36.12
2023-05-11T03:05:12.584Z,36.07
2023-05-11T03:06:12.651Z,36.10
2023-05-11T03:07:12.706Z,36.07
2023-05-11T03:08:12.721Z,36.09
2023-05-11T03:09:12.793Z,36.09
2023-05-11T03:10:12.881Z,36.10
2023-05-11T03:11:12.931Z,36.06
2023-05-11T03:12:13.008Z,36.07
2023-05-11T03:13:13.059Z,36.08
2023-05-11T03:14:13.140Z,36.02
2023-05-11T03:15:13.181Z,36.05
2023-05-11T03:16:13.320Z,36.06
2023-05-11T03:17:13.347Z,36.09
2023-05-11T03:18:13.386Z,36.07
2023-05-11T03:19:13.446Z,36.05
2023-05-11T03:20:13.916Z,36.02
2023-05-11T03:21:13.566Z,36.07
2023-05-11T03:22:13.624Z,36.06
2023-05-11T03:23:13.703Z,36.00
2023-05-11T03:24:13.722Z,36.05
2023-05-11T03:25:13.773Z,36.05
2023-05-11T03:26:13.857Z,36.03
2023-05-11T03:27:13.893Z,36.07
2023-05-11T03:28:13.938Z,36.04
2023-05-11T03:29:14.007Z,36.06
2023-05-11T03:30:14.071Z,36.01
2023-05-11T03:31:14.159Z,36.04
2023-05-11T03:32:14.232Z,36.05
2023-05-11T03:33:14.283Z,36.04
2023-05-11T03:34:14.271Z,36.04
2023-05-11T03:35:14.349Z,36.01
2023-05-11T03:36:14.397Z,36.03
2023-05-11T03:37:14.479Z,36.04
2023-05-11T03:38:14.524Z,36.02
2023-05-11T03:39:14.599Z,35.98
2023-05-11T03:40:14.705Z,36.00
2023-05-11T03:41:14.718Z,36.00
2023-05-11T03:42:14.770Z,35.97
2023-05-11T03:43:14.857Z,35.97
2023-05-11T03:44:14.926Z,36.01
2023-05-11T03:45:14.966Z,35.97
2023-05-11T03:46:15.061Z,36.00
2023-05-11T03:47:15.093Z,36.00
2023-05-11T03:48:15.173Z,35.99
2023-05-11T03:49:15.209Z,36.01
2023-05-11T03:50:15.517Z,35.98
2023-05-11T03:51:15.327Z,36.01
2023-05-11T03:52:15.439Z,35.97
2023-05-11T03:53:15.444Z,35.97
2023-05-11T03:54:15.516Z,35.99
2023-05-11T03:55:15.598Z,35.97
2023-05-11T03:56:15.609Z,36.00
2023-05-11T03:57:15.699Z,35.95
2023-05-11T03:58:15.787Z,35.95
2023-05-11T03:59:15.847Z,36.00
2023-05-11T04:00:15.945Z,35.96
2023-05-11T04:01:15.989Z,35.94
2023-05-11T04:02:16.100Z,35.93
2023-05-11T04:03:16.180Z,35.96
2023-05-11T04:04:16.217Z,35.95
2023-05-11T04:05:16.459Z,35.94
2023-05-11T04:06:16.306Z,35.92
2023-05-11T04:07:16.330Z,35.93
2023-05-11T04:08:16.425Z,35.95
2023-05-11T04:09:16.473Z,35.94
2023-05-11T04:10:16.692Z,35.93
2023-05-11T04:11:16.629Z,35.92
2023-05-11T04:12:16.665Z,35.99
2023-05-11T04:13:16.730Z,35.93
2023-05-11T04:14:16.797Z,35.95
2023-05-11T04:15:16.856Z,35.91
2023-05-11T04:16:16.961Z,35.90
2023-05-11T04:17:16.996Z,35.89
2023-05-11T04:18:17.167Z,35.91
2023-05-11T04:19:17.115Z,35.93
2023-05-11T04:20:17.351Z,35.88
2023-05-11T04:21:17.199Z,35.95
2023-05-11T04:22:17.280Z,35.89
2023-05-11T04:23:17.335Z,35.90
2023-05-11T04:24:17.392Z,35.90
2023-05-11T04:25:17.436Z,35.89
2023-05-11T04:26:17.512Z,35.92
2023-05-11T04:27:17.527Z,35.88
2023-05-11T04:28:17.561Z,35.86
2023-05-11T04:29:17.653Z,35.93
2023-05-11T04:30:18.095Z,35.89
2023-05-11T04:31:17.788Z,35.88
2023-05-11T04:32:17.815Z,35.90
2023-05-11T04:33:17.932Z,35.89
2023-05-11T04:34:17.922Z,35.86
2023-05-11T04:35:18.496Z,35.86
2023-05-11T04:36:18.098Z,35.87
2023-05-11T04:37:18.107Z,35.83
2023-05-11T04:38:18.141Z,35.88
2023-05-11T04:39:18.162Z,35.87
2023-05-11T04:40:18.658Z,35.83
2023-05-11T04:41:18.284Z,35.84
2023-05-11T04:42:18.347Z,35.86
2023-05-11T04:43:18.421Z,35.87
2023-05-11T04:44:18.461Z,35.83
2023-05-11T04:45:18.936Z,35.83
2023-05-11T04:46:18.585Z,35.82
2023-05-11T04:47:18.623Z,35.78
2023-05-11T04:48:20.717Z,35.79
2023-05-11T04:49:18.691Z,35.84
2023-05-11T04:50:18.928Z,35.83
2023-05-11T04:51:18.788Z,35.79
2023-05-11T04:52:18.827Z,35.83
2023-05-11T04:53:18.937Z,35.81
2023-05-11T04:54:18.904Z,35.81
2023-05-11T04:55:18.954Z,35.79
2023-05-11T04:56:18.978Z,35.83
2023-05-11T04:57:19.058Z,35.77
2023-05-11T04:58:19.072Z,35.77
2023-05-11T04:59:19.117Z,35.79
2023-05-11T05:00:19.750Z,35.78
2023-05-11T05:01:19.259Z,35.81
2023-05-11T05:02:19.378Z,35.78
2023-05-11T05:03:19.316Z,35.79
2023-05-11T05:04:19.521Z,35.79
2023-05-11T05:05:19.468Z,35.81
2023-05-11T05:06:19.378Z,35.82
2023-05-11T05:07:19.468Z,35.81
2023-05-11T05:08:19.490Z,35.79
2023-05-11T05:09:19.515Z,35.79
2023-05-11T05:10:19.807Z,35.81
2023-05-11T05:11:19.588Z,35.80
2023-05-11T05:12:19.669Z,35.79
2023-05-11T05:13:19.721Z,35.79
2023-05-11T05:14:19.759Z,35.78
2023-05-11T05:15:19.814Z,35.76
2023-05-11T05:16:19.935Z,35.76
2023-05-11T05:17:19.926Z,35.74
2023-05-11T05:18:20.024Z,35.73
2023-05-11T05:19:20.045Z,35.76
2023-05-11T05:20:20.710Z,35.77
2023-05-11T05:21:20.162Z,35.73
2023-05-11T05:22:20.158Z,35.74
2023-05-11T05:23:20.365Z,35.73
2023-05-11T05:24:20.289Z,35.76
2023-05-11T05:25:20.483Z,35.72
2023-05-11T05:26:20.351Z,35.75
2023-05-11T05:27:20.398Z,35.72
2023-05-11T05:28:20.444Z,35.72
2023-05-11T05:29:20.462Z,35.73
2023-05-11T05:30:20.779Z,35.72
2023-05-11T05:31:20.705Z,35.74
2023-05-11T05:32:20.652Z,35.70
2023-05-11T05:33:20.694Z,35.76
2023-05-11T05:34:20.705Z,35.78
2023-05-11T05:35:20.966Z,35.74
2023-05-11T05:36:20.774Z,35.72
2023-05-11T05:37:20.841Z,35.79
2023-05-11T05:38:20.883Z,35.82
2023-05-11T05:39:20.883Z,35.78
2023-05-11T05:40:21.161Z,35.76
2023-05-11T05:41:20.942Z,35.74
2023-05-11T05:42:20.987Z,35.79
2023-05-11T05:43:21.178Z,35.77
2023-05-11T05:44:21.096Z,35.78
2023-05-11T05:45:21.143Z,35.82
2023-05-11T05:46:21.299Z,35.76
2023-05-11T05:47:21.261Z,35.78
2023-05-11T05:48:21.224Z,35.78
2023-05-11T05:49:21.268Z,35.76
2023-05-11T05:50:21.490Z,35.78
2023-05-11T05:51:21.327Z,35.80
2023-05-11T05:52:21.342Z,35.76
2023-05-11T05:53:21.396Z,35.78
2023-05-11T05:54:21.408Z,35.77
2023-05-11T05:55:21.514Z,35.81
2023-05-11T05:56:21.534Z,35.73
2023-05-11T05:57:21.533Z,35.78
2023-05-11T05:58:21.595Z,35.78
2023-05-11T05:59:21.594Z,35.71
2023-05-11T06:00:21.996Z,35.77
2023-05-11T06:01:21.678Z,35.73
2023-05-11T06:02:21.852Z,35.75
2023-05-11T06:03:21.826Z,35.75
2023-05-11T06:04:21.837Z,35.71
2023-05-11T06:05:21.989Z,35.74
2023-05-11T06:06:21.764Z,35.67
2023-05-11T06:07:21.810Z,35.71
2023-05-11T06:08:21.864Z,35.67
2023-05-11T06:09:21.856Z,35.69
2023-05-11T06:10:21.981Z,35.64
2023-05-11T06:11:21.948Z,35.65
2023-05-11T06:12:21.937Z,35.66
2023-05-11T06:13:22.003Z,35.64
2023-05-11T06:14:22.038Z,35.64
2023-05-11T06:15:22.515Z,35.60
2023-05-11T06:16:22.129Z,35.57
2023-05-11T06:17:22.082Z,35.62
2023-05-11T06:18:22.133Z,35.26
2023-05-11T06:19:22.089Z,35.39
2023-05-11T06:20:22.135Z,35.48
2023-05-11T06:21:22.131Z,35.53
2023-05-11T06:22:22.169Z,35.51
2023-05-11T06:23:22.191Z,35.58
2023-05-11T06:24:22.194Z,35.58
2023-05-11T06:25:22.546Z,35.56
2023-05-11T06:26:22.241Z,35.58
2023-05-11T06:27:22.252Z,35.52
2023-05-11T06:28:22.282Z,35.52
2023-05-11T06:29:22.394Z,35.53
2023-05-11T06:30:22.512Z,35.47
2023-05-11T06:31:22.401Z,35.57
2023-05-11T06:32:22.467Z,35.52
2023-05-11T06:33:22.443Z,35.52
2023-05-11T06:34:22.440Z,35.51
2023-05-11T06:35:22.505Z,35.53
2023-05-11T06:36:22.491Z,35.52
2023-05-11T06:37:22.533Z,35.53
2023-05-11T06:38:22.560Z,35.55
2023-05-11T06:39:22.560Z,35.58
2023-05-11T06:40:23.036Z,35.56
2023-05-11T06:41:22.655Z,35.53
2023-05-11T06:42:22.656Z,35.53
2023-05-11T06:43:22.655Z,35.55
2023-05-11T06:44:22.675Z,35.52
2023-05-11T06:45:22.781Z,35.58
2023-05-11T06:46:22.811Z,35.52
2023-05-11T06:47:22.795Z,35.53
2023-05-11T06:48:22.777Z,35.51
2023-05-11T06:49:22.811Z,35.53
2023-05-11T06:50:25.089Z,35.52
2023-05-11T06:51:22.789Z,35.49
2023-05-11T06:52:22.837Z,35.49
2023-05-11T06:53:22.796Z,35.56
2023-05-11T06:54:22.786Z,35.52
2023-05-11T06:55:22.780Z,35.51
2023-05-11T06:56:22.794Z,35.53
2023-05-11T06:57:22.782Z,35.52
2023-05-11T06:58:22.792Z,35.56
2023-05-11T06:59:22.814Z,35.53
2023-05-11T07:00:22.751Z,35.56
2023-05-11T07:01:22.783Z,35.57
2023-05-11T07:02:22.758Z,35.49
2023-05-11T07:03:22.732Z,35.53
2023-05-11T07:04:22.775Z,35.49
2023-05-11T07:05:22.725Z,35.46
2023-05-11T07:06:23.051Z,35.44
2023-05-11T07:07:22.740Z,35.44
2023-05-11T07:08:22.677Z,35.42
2023-05-11T07:09:22.703Z,35.47
2023-05-11T07:10:22.694Z,35.45
2023-05-11T07:11:23.067Z,35.45
2023-05-11T07:12:22.671Z,35.46
2023-05-11T07:13:22.642Z,35.41
2023-05-11T07:14:22.656Z,35.40
2023-05-11T07:15:22.647Z,35.41
2023-05-11T07:16:23.050Z,35.42
2023-05-11T07:17:22.696Z,35.42
2023-05-11T07:18:22.698Z,35.41
2023-05-11T07:19:22.607Z,35.37
2023-05-11T07:20:22.624Z,35.41
2023-05-11T07:21:22.638Z,35.37
2023-05-11T07:22:23.567Z,35.36
2023-05-11T07:23:22.612Z,35.35
2023-05-11T07:24:22.591Z,35.36
2023-05-11T07:25:22.597Z,35.40
2023-05-11T07:26:23.076Z,35.36
2023-05-11T07:27:22.585Z,35.35
2023-05-11T07:28:22.522Z,35.35
2023-05-11T07:29:22.541Z,35.33
2023-05-11T07:30:22.821Z,35.37
2023-05-11T07:31:23.094Z,35.36
2023-05-11T07:32:22.637Z,35.37
2023-05-11T07:33:22.568Z,35.31
2023-05-11T07:34:22.501Z,35.35
2023-05-11T07:35:24.200Z,35.33
2023-05-11T07:36:23.052Z,35.36
2023-05-11T07:37:22.632Z,35.31
2023-05-11T07:38:22.585Z,35.32
2023-05-11T07:39:22.622Z,35.33
2023-05-11T07:40:22.637Z,35.35
2023-05-11T07:41:23.078Z,35.31
2023-05-11T07:42:22.665Z,35.30
2023-05-11T07:43:22.666Z,35.27
2023-05-11T07:44:22.665Z,35.32
2023-05-11T07:45:22.644Z,35.31
2023-05-11T07:46:23.118Z,35.25
2023-05-11T07:47:22.747Z,35.32
2023-05-11T07:48:22.702Z,35.35
2023-05-11T07:49:31.094Z,35.78
2023-05-11T07:50:24.612Z,35.73
2023-05-11T07:51:23.058Z,36.02
2023-05-11T07:52:22.678Z,36.62
2023-05-11T07:53:22.659Z,36.59
2023-05-11T07:54:22.672Z,36.24
2023-05-11T07:55:22.678Z,35.83
2023-05-11T07:56:23.036Z,34.73
2023-05-11T07:57:22.774Z,34.73
2023-05-11T07:58:22.827Z,33.78
2023-05-11T07:59:22.873Z,33.05
2023-05-11T08:00:22.930Z,33.08
2023-05-11T08:01:23.032Z,32.47
2023-05-11T08:02:23.064Z,32.80
2023-05-11T08:03:23.193Z,32.76
2023-05-11T08:04:23.146Z,31.92
2023-05-11T08:05:23.221Z,31.83
2023-05-11T08:06:23.213Z,31.64
2023-05-11T08:07:23.190Z,31.94
2023-05-11T08:08:23.205Z,31.32
2023-05-11T08:09:23.250Z,31.60
2023-05-11T08:10:23.280Z,31.88
2023-05-11T08:11:23.255Z,31.93
2023-05-11T08:12:23.289Z,31.36
2023-05-11T08:13:23.245Z,31.64
2023-05-11T08:14:23.318Z,31.28
2023-05-11T08:15:23.247Z,31.46
2023-05-11T08:16:23.602Z,31.98
2023-05-11T08:17:23.323Z,32.34
2023-05-11T08:18:23.394Z,32.49
2023-05-11T08:19:23.454Z,32.43
2023-05-11T08:20:23.610Z,32.90
2023-05-11T08:21:23.569Z,33.23
2023-05-11T08:22:23.618Z,33.36
2023-05-11T08:23:23.637Z,33.39
2023-05-11T08:24:23.751Z,33.46
2023-05-11T08:25:23.726Z,33.62
2023-05-11T08:26:23.749Z,33.60
2023-05-11T08:27:23.781Z,33.59
2023-05-11T08:28:23.772Z,33.21
2023-05-11T08:29:23.787Z,33.74
2023-05-11T08:30:23.819Z,33.74
2023-05-11T08:31:23.941Z,33.80
2023-05-11T08:32:23.908Z,32.01
2023-05-11T08:33:36.490Z,30.31
2023-05-11T08:34:25.018Z,30.06
2023-05-11T08:35:23.956Z,29.64
2023-05-11T08:36:24.074Z,29.14
2023-05-11T08:37:23.851Z,29.02
2023-05-11T08:38:23.822Z,28.88
2023-05-11T08:39:43.238Z,29.35
2023-05-11T08:40:24.853Z,30.38
2023-05-11T08:41:23.819Z,31.18
2023-05-11T08:42:23.815Z,31.75
2023-05-11T08:43:23.820Z,32.66
2023-05-11T08:44:23.766Z,32.71
2023-05-11T08:45:23.775Z,32.86
2023-05-11T08:46:24.088Z,33.00
2023-05-11T08:47:24.089Z,33.69
2023-05-11T08:48:23.772Z,34.01
2023-05-11T08:49:23.750Z,34.08
2023-05-11T08:50:23.785Z,34.15
2023-05-11T08:51:23.768Z,34.37
2023-05-11T08:52:23.740Z,34.18
2023-05-11T08:53:23.783Z,34.27
2023-05-11T08:54:23.781Z,34.10
2023-05-11T08:55:23.820Z,34.44
2023-05-11T08:56:24.110Z,34.10
2023-05-11T08:57:23.870Z,33.66
2023-05-11T08:58:23.924Z,31.97
2023-05-11T08:59:24.095Z,30.60
2023-05-11T09:00:24.043Z,30.81
2023-05-11T09:01:24.094Z,31.31
2023-05-11T09:02:24.136Z,31.55
2023-05-11T09:03:24.147Z,31.97
2023-05-11T09:04:24.191Z,32.01
2023-05-11T09:05:24.298Z,32.58
2023-05-11T09:06:24.558Z,32.91
2023-05-11T09:07:24.377Z,32.99
2023-05-11T09:08:24.393Z,33.13
2023-05-11T09:09:24.439Z,33.42
2023-05-11T09:10:24.499Z,33.84
2023-05-11T09:11:24.485Z,33.78
2023-05-11T09:12:24.522Z,33.69
2023-05-11T09:13:24.605Z,33.77
2023-05-11T09:14:27.628Z,33.94
2023-05-11T09:15:24.591Z,34.12
2023-05-11T09:16:36.788Z,34.19
2023-05-11T09:17:25.639Z,34.40
2023-05-11T09:18:24.563Z,34.42
2023-05-11T09:19:24.523Z,34.53
2023-05-11T09:20:24.530Z,34.59
2023-05-11T09:21:24.602Z,34.65
2023-05-11T09:22:24.540Z,34.64
2023-05-11T09:23:24.525Z,34.63
2023-05-11T09:24:24.511Z,34.73
2023-05-11T09:25:24.478Z,34.86
2023-05-11T09:26:24.589Z,34.94
2023-05-11T09:27:24.503Z,34.96
2023-05-11T09:28:25.923Z,35.03
2023-05-11T09:30:25.490Z,35.23
2023-05-11T09:31:24.512Z,35.19
2023-05-11T09:32:24.544Z,35.22
2023-05-11T09:33:24.466Z,35.31
2023-05-11T09:34:24.429Z,35.41
2023-05-11T09:35:24.465Z,35.52
2023-05-11T09:36:24.629Z,35.59
2023-05-11T09:37:24.443Z,35.68
2023-05-11T09:38:24.425Z,35.70
2023-05-11T09:39:36.329Z,35.76
2023-05-11T09:40:27.601Z,35.76
2023-05-11T09:41:24.375Z,35.80
2023-05-11T09:42:24.601Z,35.77
2023-05-11T09:43:24.504Z,36.01
2023-05-11T09:44:24.413Z,36.09
2023-05-11T09:45:24.398Z,36.11
2023-05-11T09:46:24.429Z,36.14
2023-05-11T09:47:24.366Z,36.16
2023-05-11T09:48:24.383Z,36.05
2023-05-11T09:49:24.402Z,35.77
2023-05-11T09:50:26.831Z,35.40
2023-05-11T09:51:24.494Z,35.85
2023-05-11T09:52:24.616Z,36.63
2023-05-11T09:53:26.580Z,36.15
2023-05-11T09:54:24.598Z,36.14
2023-05-11T09:55:24.576Z,36.02
2023-05-11T09:56:24.585Z,35.55
2023-05-11T09:57:25.091Z,33.98
2023-05-11T09:58:24.657Z,33.47
2023-05-11T09:59:26.246Z,33.38
2023-05-11T10:00:24.717Z,32.67
2023-05-11T10:01:24.786Z,32.56
2023-05-11T10:02:25.204Z,31.86
2023-05-11T10:03:24.926Z,31.83
2023-05-11T10:04:24.988Z,31.57
2023-05-11T10:05:24.940Z,31.53
2023-05-11T10:06:25.006Z,31.73
2023-05-11T10:07:25.133Z,32.00
2023-05-11T10:08:25.151Z,32.75
2023-05-11T10:09:25.242Z,33.01
2023-05-11T10:10:25.259Z,33.74
2023-05-11T10:11:26.408Z,33.90
2023-05-11T10:12:25.628Z,34.14
2023-05-11T10:13:25.380Z,34.30
2023-05-11T10:14:25.413Z,34.49
2023-05-11T10:15:25.406Z,34.82
2023-05-11T10:16:25.467Z,35.01
2023-05-11T10:17:25.629Z,35.13
2023-05-11T10:18:25.555Z,35.44
2023-05-11T10:19:25.500Z,35.64
2023-05-11T10:20:25.502Z,35.67
2023-05-11T10:21:25.491Z,35.77
2023-05-11T10:22:25.624Z,35.93
2023-05-11T10:23:25.473Z,36.00
2023-05-11T10:24:25.507Z,36.30
2023-05-11T10:25:25.568Z,36.38
2023-05-11T10:26:25.590Z,36.31
2023-05-11T10:27:26.122Z,36.17
2023-05-11T10:28:25.760Z,35.40
2023-05-11T10:29:25.787Z,35.76
2023-05-11T10:30:25.888Z,35.97
2023-05-11T10:31:25.979Z,36.44
2023-05-11T10:32:26.174Z,36.50
2023-05-11T10:33:26.017Z,36.62
2023-05-11T10:34:26.083Z,36.66
2023-05-11T10:35:26.154Z,36.80
2023-05-11T10:36:26.225Z,36.90
2023-05-11T10:37:26.609Z,37.04
2023-05-11T10:38:26.281Z,37.40
2023-05-11T10:39:26.345Z,37.98
2023-05-11T10:40:26.374Z,37.62
2023-05-11T10:41:26.457Z,37.73
2023-05-11T10:42:26.634Z,37.49
2023-05-11T10:43:26.628Z,37.01
2023-05-11T10:44:26.604Z,37.51
2023-05-11T10:45:26.601Z,37.52
2023-05-11T10:46:28.169Z,37.47
2023-05-11T10:47:27.159Z,37.31
2023-05-11T10:48:26.691Z,37.43
2023-05-11T10:49:26.681Z,37.52
2023-05-11T10:50:26.660Z,37.51
2023-05-11T10:51:26.635Z,37.69
2023-05-11T10:52:28.772Z,38.00
2023-05-11T10:53:26.653Z,38.04
2023-05-11T10:54:26.627Z,37.90
2023-05-11T10:55:26.618Z,37.94
2023-05-11T10:56:26.633Z,37.72
2023-05-11T10:57:26.611Z,37.86
2023-05-11T10:58:26.628Z,37.73
2023-05-11T10:59:26.630Z,37.67
2023-05-11T11:00:26.628Z,37.55
2023-05-11T11:01:26.584Z,37.62
2023-05-11T11:02:26.582Z,37.64
2023-05-11T11:03:26.578Z,37.61
2023-05-11T11:04:28.196Z,37.64
2023-05-11T11:05:26.581Z,37.59
2023-05-11T11:06:26.520Z,37.67
2023-05-11T11:07:26.657Z,37.73
2023-05-11T11:08:26.504Z,37.66
2023-05-11T11:09:26.521Z,37.52
2023-05-11T11:10:26.530Z,37.57
2023-05-11T11:11:26.539Z,37.50
2023-05-11T11:12:26.635Z,37.58
2023-05-11T11:13:26.511Z,37.57
2023-05-11T11:14:26.468Z,37.57
2023-05-11T11:15:26.467Z,37.54
2023-05-11T11:16:26.491Z,37.62
2023-05-11T11:17:26.732Z,37.59
2023-05-11T11:18:26.554Z,37.58
2023-05-11T11:19:26.440Z,37.52
2023-05-11T11:20:26.456Z,37.60
2023-05-11T11:21:26.464Z,37.52
2023-05-11T11:22:26.428Z,37.55
2023-05-11T11:23:26.479Z,37.59
2023-05-11T11:24:26.454Z,37.76
2023-05-11T11:25:26.426Z,37.57
2023-05-11T11:26:26.403Z,37.61
2023-05-11T11:27:29.458Z,37.65
2023-05-11T11:28:26.380Z,37.68
2023-05-11T11:29:26.393Z,37.61
2023-05-11T11:30:26.363Z,37.64
2023-05-11T11:31:26.697Z,37.61
2023-05-11T11:32:26.783Z,37.64
2023-05-11T11:33:26.353Z,37.63
2023-05-11T11:34:26.356Z,37.60
2023-05-11T11:35:26.318Z,37.65
2023-05-11T11:36:26.365Z,37.60
2023-05-11T11:37:26.735Z,37.58
2023-05-11T11:38:28.672Z,37.53
2023-05-11T11:39:26.326Z,37.57
2023-05-11T11:40:27.421Z,37.31
2023-05-11T11:41:26.305Z,37.18
2023-05-11T11:42:26.309Z,37.31
2023-05-11T11:43:26.305Z,37.41
2023-05-11T11:44:26.286Z,37.50
2023-05-11T11:45:26.332Z,37.51
2023-05-11T11:46:26.326Z,37.53
2023-05-11T11:47:26.543Z,37.41
2023-05-11T11:48:26.283Z,37.38
2023-05-11T11:49:26.258Z,37.47
2023-05-11T11:50:26.259Z,37.41
2023-05-11T11:51:26.256Z,37.39
2023-05-11T11:52:26.650Z,37.42
2023-05-11T11:53:26.248Z,37.35
2023-05-11T11:54:26.218Z,37.49
2023-05-11T11:55:26.240Z,37.35
2023-05-11T11:56:26.256Z,37.38
2023-05-11T11:57:26.666Z,37.35
2023-05-11T11:58:26.212Z,37.40
2023-05-11T11:59:26.190Z,37.31
2023-05-11T12:00:26.192Z,37.36
2023-05-11T12:01:26.201Z,37.36
2023-05-11T12:02:26.819Z,37.34
2023-05-11T12:03:26.359Z,37.35
2023-05-11T12:04:26.304Z,37.32
2023-05-11T12:05:26.290Z,37.36
2023-05-11T12:06:26.884Z,37.36
2023-05-11T12:07:26.625Z,37.31
2023-05-11T12:08:26.165Z,37.34
2023-05-11T12:09:26.163Z,37.33
2023-05-11T12:10:26.160Z,37.36
2023-05-11T12:11:26.102Z,37.32
2023-05-11T12:12:26.124Z,37.34
2023-05-11T12:13:26.144Z,37.29
2023-05-11T12:14:26.069Z,37.27
2023-05-11T12:15:26.099Z,37.32
2023-05-11T12:16:26.119Z,37.23
2023-05-11T12:17:26.150Z,37.28
2023-05-11T12:18:26.125Z,37.30
2023-05-11T12:19:26.090Z,37.19
2023-05-11T12:20:26.099Z,37.22
2023-05-11T12:21:26.054Z,37.29
2023-05-11T12:22:26.156Z,37.24
2023-05-11T12:23:26.051Z,37.19
2023-05-11T12:24:26.021Z,37.18
2023-05-11T12:25:26.034Z,37.18
2023-05-11T12:26:26.057Z,37.14
2023-05-11T12:27:26.049Z,37.15
2023-05-11T12:28:26.007Z,37.09
2023-05-11T12:29:26.013Z,37.16
2023-05-11T12:30:25.998Z,37.15
2023-05-11T12:31:26.017Z,37.15
2023-05-11T12:32:26.197Z,37.10
2023-05-11T12:33:25.960Z,37.11
2023-05-11T12:34:25.955Z,37.16
2023-05-11T12:35:25.964Z,37.06
2023-05-11T12:36:25.930Z,35.06
2023-05-11T12:37:26.174Z,38.80
2023-05-11T12:38:25.961Z,33.03
2023-05-11T12:39:25.946Z,31.92
2023-05-11T12:40:25.926Z,33.02
2023-05-11T12:41:25.948Z,34.50
2023-05-11T12:42:26.180Z,33.46
2023-05-11T12:43:25.910Z,34.68
2023-05-11T12:44:25.928Z,34.83
2023-05-11T12:45:25.907Z,34.67
2023-05-11T12:46:25.946Z,34.30
2023-05-11T12:47:25.900Z,32.32
2023-05-11T12:48:25.901Z,33.96
2023-05-11T12:49:26.982Z,33.43
2023-05-11T12:50:25.866Z,34.85
2023-05-11T12:51:25.961Z,34.46
2023-05-11T12:52:25.861Z,32.58
2023-05-11T12:53:25.863Z,32.19